sensor_id;sensor_type;location;lat;lon;timestamp;pressure;altitude;pressure_sealevel;temperature;humidity
40117;BME280;25829;50.228;18.936;2022-11-18T00:00:46;97257.72;;;0.95;70.39
40117;BME280;25829;50.228;18.936;2022-11-18T00:03:47;97245.84;;;1.00;70.66
40117;BME280;25829;50.228;18.936;2022-11-18T00:06:51;97254.88;;;1.04;70.30
40117;BME280;25829;50.228;18.936;2022-11-18T00:09:52;97250.56;;;0.97;69.91
40117;BME280;25829;50.228;18.936;2022-11-18T00:12:53;97242.56;;;0.83;70.64
40117;BME280;25829;50.228;18.936;2022-11-18T00:16:22;97239.44;;;0.88;70.32
40117;BME280;25829;50.228;18.936;2022-11-18T00:19:25;97239.28;;;0.90;70.92
40117;BME280;25829;50.228;18.936;2022-11-18T00:22:27;97236.31;;;0.93;70.61
40117;BME280;25829;50.228;18.936;2022-11-18T00:25:27;97230.97;;;0.94;70.43
40117;BME280;25829;50.228;18.936;2022-11-18T00:28:34;97233.31;;;1.04;71.23
40117;BME280;25829;50.228;18.936;2022-11-18T00:31:36;97241.91;;;1.04;70.36
40117;BME280;25829;50.228;18.936;2022-11-18T00:34:37;97236.06;;;1.02;70.66
40117;BME280;25829;50.228;18.936;2022-11-18T00:37:38;97239.47;;;1.03;69.85
40117;BME280;25829;50.228;18.936;2022-11-18T00:41:12;97247.78;;;0.98;70.38
40117;BME280;25829;50.228;18.936;2022-11-18T00:44:16;97245.03;;;1.00;70.45
40117;BME280;25829;50.228;18.936;2022-11-18T00:47:17;97244.19;;;0.99;69.83
40117;BME280;25829;50.228;18.936;2022-11-18T00:50:18;97248.25;;;1.02;70.62
40117;BME280;25829;50.228;18.936;2022-11-18T00:53:36;97256.69;;;1.04;70.44
40117;BME280;25829;50.228;18.936;2022-11-18T01:03:25;97245.31;;;1.20;69.36
40117;BME280;25829;50.228;18.936;2022-11-18T01:06:26;97254.34;;;1.09;70.32
40117;BME280;25829;50.228;18.936;2022-11-18T01:09:27;97249.50;;;1.06;70.05
40117;BME280;25829;50.228;18.936;2022-11-18T01:12:37;97241.50;;;0.93;69.56
40117;BME280;25829;50.228;18.936;2022-11-18T01:15:57;97225.44;;;0.74;70.09
40117;BME280;25829;50.228;18.936;2022-11-18T01:18:58;97228.50;;;0.78;70.71
40117;BME280;25829;50.228;18.936;2022-11-18T01:21:59;97224.91;;;0.79;70.94
40117;BME280;25829;50.228;18.936;2022-11-18T01:25:02;97212.38;;;0.82;70.85
40117;BME280;25829;50.228;18.936;2022-11-18T01:28:04;97220.28;;;0.89;70.59
40117;BME280;25829;50.228;18.936;2022-11-18T01:31:07;97215.38;;;0.94;70.94
40117;BME280;25829;50.228;18.936;2022-11-18T01:34:08;97210.63;;;0.98;70.71
40117;BME280;25829;50.228;18.936;2022-11-18T01:37:15;97199.72;;;1.02;71.09
40117;BME280;25829;50.228;18.936;2022-11-18T01:40:16;97190.31;;;1.01;70.33
40117;BME280;25829;50.228;18.936;2022-11-18T01:43:18;97193.81;;;1.08;70.44
40117;BME280;25829;50.228;18.936;2022-11-18T01:46:22;97186.72;;;1.02;70.04
40117;BME280;25829;50.228;18.936;2022-11-18T01:49:26;97192.25;;;0.84;70.58
40117;BME280;25829;50.228;18.936;2022-11-18T01:52:28;97184.00;;;0.81;70.25
40117;BME280;25829;50.228;18.936;2022-11-18T01:55:32;97173.88;;;0.71;70.77
40117;BME280;25829;50.228;18.936;2022-11-18T01:58:40;97179.97;;;0.78;71.02
40117;BME280;25829;50.228;18.936;2022-11-18T02:01:43;97184.81;;;0.81;70.89
40117;BME280;25829;50.228;18.936;2022-11-18T02:04:52;97181.34;;;0.89;71.33
40117;BME280;25829;50.228;18.936;2022-11-18T02:07:55;97180.97;;;0.92;71.00
40117;BME280;25829;50.228;18.936;2022-11-18T02:10:57;97182.31;;;0.88;69.80
40117;BME280;25829;50.228;18.936;2022-11-18T02:14:18;97182.13;;;0.75;70.53
40117;BME280;25829;50.228;18.936;2022-11-18T02:21:18;97173.19;;;0.77;70.14
40117;BME280;25829;50.228;18.936;2022-11-18T02:24:25;97179.19;;;0.78;70.44
40117;BME280;25829;50.228;18.936;2022-11-18T02:31:05;97162.81;;;0.92;70.65
40117;BME280;25829;50.228;18.936;2022-11-18T02:40:51;97178.41;;;1.07;70.43
40117;BME280;25829;50.228;18.936;2022-11-18T02:44:24;97184.22;;;1.09;70.36
40117;BME280;25829;50.228;18.936;2022-11-18T02:47:27;97182.41;;;1.10;70.77
40117;BME280;25829;50.228;18.936;2022-11-18T02:50:33;97178.69;;;1.12;70.60
40117;BME280;25829;50.228;18.936;2022-11-18T02:53:37;97184.56;;;1.06;70.01
40117;BME280;25829;50.228;18.936;2022-11-18T02:56:41;97193.00;;;1.08;70.24
40117;BME280;25829;50.228;18.936;2022-11-18T02:59:43;97188.97;;;1.05;70.13
40117;BME280;25829;50.228;18.936;2022-11-18T03:02:46;97194.81;;;1.07;70.48
40117;BME280;25829;50.228;18.936;2022-11-18T03:06:12;97186.38;;;1.05;69.37
40117;BME280;25829;50.228;18.936;2022-11-18T03:09:38;97184.47;;;0.99;70.08
40117;BME280;25829;50.228;18.936;2022-11-18T03:12:56;97186.16;;;0.92;69.80
40117;BME280;25829;50.228;18.936;2022-11-18T03:16:08;97171.22;;;0.79;69.40
40117;BME280;25829;50.228;18.936;2022-11-18T03:19:17;97168.13;;;0.61;69.97
40117;BME280;25829;50.228;18.936;2022-11-18T03:22:34;97172.16;;;0.64;70.81
40117;BME280;25829;50.228;18.936;2022-11-18T03:26:01;97175.91;;;0.61;70.61
40117;BME280;25829;50.228;18.936;2022-11-18T03:29:13;97175.13;;;0.60;70.37
40117;BME280;25829;50.228;18.936;2022-11-18T03:32:22;97161.34;;;0.60;70.29
40117;BME280;25829;50.228;18.936;2022-11-18T03:35:27;97161.69;;;0.57;70.10
40117;BME280;25829;50.228;18.936;2022-11-18T03:38:37;97156.50;;;0.57;70.41
40117;BME280;25829;50.228;18.936;2022-11-18T03:41:44;97161.00;;;0.63;70.43
40117;BME280;25829;50.228;18.936;2022-11-18T03:44:53;97154.28;;;0.69;70.55
40117;BME280;25829;50.228;18.936;2022-11-18T03:51:45;97147.56;;;0.59;70.20
40117;BME280;25829;50.228;18.936;2022-11-18T03:54:49;97150.94;;;0.60;70.57
40117;BME280;25829;50.228;18.936;2022-11-18T03:58:24;97141.13;;;0.55;70.73
40117;BME280;25829;50.228;18.936;2022-11-18T04:04:53;97147.69;;;0.43;70.99
40117;BME280;25829;50.228;18.936;2022-11-18T04:08:00;97141.44;;;0.38;71.15
40117;BME280;25829;50.228;18.936;2022-11-18T04:11:23;97132.44;;;0.25;71.82
40117;BME280;25829;50.228;18.936;2022-11-18T04:14:49;97129.22;;;0.23;71.86
40117;BME280;25829;50.228;18.936;2022-11-18T04:17:58;97120.63;;;0.23;72.65
40117;BME280;25829;50.228;18.936;2022-11-18T04:20:59;97121.63;;;0.22;72.39
40117;BME280;25829;50.228;18.936;2022-11-18T04:23:59;97126.16;;;0.20;72.53
40117;BME280;25829;50.228;18.936;2022-11-18T04:27:00;97137.25;;;0.14;72.88
40117;BME280;25829;50.228;18.936;2022-11-18T04:30:03;97128.25;;;0.01;72.62
40117;BME280;25829;50.228;18.936;2022-11-18T04:33:12;97130.19;;;-0.01;72.96
40117;BME280;25829;50.228;18.936;2022-11-18T04:36:13;97121.50;;;-0.08;73.33
40117;BME280;25829;50.228;18.936;2022-11-18T04:39:14;97125.72;;;-0.07;73.67
40117;BME280;25829;50.228;18.936;2022-11-18T04:42:17;97124.91;;;-0.07;73.63
40117;BME280;25829;50.228;18.936;2022-11-18T04:45:18;97135.91;;;-0.05;74.22
40117;BME280;25829;50.228;18.936;2022-11-18T04:48:21;97135.22;;;0.01;73.90
40117;BME280;25829;50.228;18.936;2022-11-18T04:51:22;97139.88;;;0.05;73.62
40117;BME280;25829;50.228;18.936;2022-11-18T04:54:26;97144.72;;;0.08;73.35
40117;BME280;25829;50.228;18.936;2022-11-18T04:57:27;97145.81;;;0.14;74.17
40117;BME280;25829;50.228;18.936;2022-11-18T05:00:28;97151.28;;;0.19;73.42
40117;BME280;25829;50.228;18.936;2022-11-18T05:03:29;97140.34;;;0.09;72.98
40117;BME280;25829;50.228;18.936;2022-11-18T05:06:30;97133.38;;;0.09;73.43
40117;BME280;25829;50.228;18.936;2022-11-18T05:09:31;97137.75;;;0.09;73.49
40117;BME280;25829;50.228;18.936;2022-11-18T05:16:14;97128.56;;;0.06;73.47
40117;BME280;25829;50.228;18.936;2022-11-18T05:19:15;97123.88;;;0.02;73.74
40117;BME280;25829;50.228;18.936;2022-11-18T05:22:19;97127.59;;;-0.01;74.26
40117;BME280;25829;50.228;18.936;2022-11-18T05:25:20;97133.25;;;0.03;74.33
40117;BME280;25829;50.228;18.936;2022-11-18T05:32:24;97142.13;;;0.08;73.85
40117;BME280;25829;50.228;18.936;2022-11-18T05:35:24;97138.09;;;0.06;74.58
40117;BME280;25829;50.228;18.936;2022-11-18T05:38:25;97151.81;;;0.15;74.54
40117;BME280;25829;50.228;18.936;2022-11-18T05:41:26;97168.75;;;0.25;74.40
40117;BME280;25829;50.228;18.936;2022-11-18T05:44:45;97169.22;;;0.29;73.91
40117;BME280;25829;50.228;18.936;2022-11-18T05:47:46;97161.44;;;0.29;74.22
40117;BME280;25829;50.228;18.936;2022-11-18T05:51:03;97169.28;;;0.21;73.71
40117;BME280;25829;50.228;18.936;2022-11-18T05:54:08;97179.81;;;0.19;74.06
40117;BME280;25829;50.228;18.936;2022-11-18T05:57:36;97177.09;;;0.12;73.73
40117;BME280;25829;50.228;18.936;2022-11-18T06:00:37;97175.22;;;0.06;74.04
40117;BME280;25829;50.228;18.936;2022-11-18T06:03:39;97178.28;;;0.10;74.45
40117;BME280;25829;50.228;18.936;2022-11-18T06:07:41;97179.34;;;0.16;74.09
40117;BME280;25829;50.228;18.936;2022-11-18T06:10:34;97184.38;;;0.17;73.92
40117;BME280;25829;50.228;18.936;2022-11-18T06:14:05;97188.59;;;0.18;73.66
40117;BME280;25829;50.228;18.936;2022-11-18T06:20:55;97209.97;;;0.20;73.58
40117;BME280;25829;50.228;18.936;2022-11-18T06:28:56;97203.97;;;0.20;74.09
40117;BME280;25829;50.228;18.936;2022-11-18T06:32:29;97203.50;;;0.16;73.12
40117;BME280;25829;50.228;18.936;2022-11-18T06:35:54;97216.78;;;0.21;73.38
40117;BME280;25829;50.228;18.936;2022-11-18T06:39:10;97210.94;;;0.19;73.07
40117;BME280;25829;50.228;18.936;2022-11-18T06:42:29;97227.94;;;0.22;73.91
40117;BME280;25829;50.228;18.936;2022-11-18T06:46:05;97212.25;;;0.15;72.96
40117;BME280;25829;50.228;18.936;2022-11-18T06:49:36;97222.97;;;0.12;72.97
40117;BME280;25829;50.228;18.936;2022-11-18T06:52:53;97221.72;;;0.08;73.54
40117;BME280;25829;50.228;18.936;2022-11-18T06:56:28;97225.28;;;0.07;73.53
40117;BME280;25829;50.228;18.936;2022-11-18T07:00:15;97232.25;;;0.06;73.79
40117;BME280;25829;50.228;18.936;2022-11-18T07:03:15;97237.53;;;0.13;73.59
40117;BME280;25829;50.228;18.936;2022-11-18T07:06:25;97243.69;;;0.20;74.01
40117;BME280;25829;50.228;18.936;2022-11-18T07:09:29;97237.66;;;0.20;73.42
40117;BME280;25829;50.228;18.936;2022-11-18T07:12:32;97234.75;;;0.23;73.09
40117;BME280;25829;50.228;18.936;2022-11-18T07:15:36;97231.19;;;0.24;73.68
40117;BME280;25829;50.228;18.936;2022-11-18T07:18:38;97226.09;;;0.30;74.06
40117;BME280;25829;50.228;18.936;2022-11-18T07:22:05;97234.00;;;0.37;73.69
40117;BME280;25829;50.228;18.936;2022-11-18T07:25:07;97226.84;;;0.39;74.27
40117;BME280;25829;50.228;18.936;2022-11-18T07:28:08;97223.97;;;0.34;73.73
40117;BME280;25829;50.228;18.936;2022-11-18T07:31:14;97218.63;;;0.35;73.76
40117;BME280;25829;50.228;18.936;2022-11-18T07:34:22;97226.41;;;0.35;73.62
40117;BME280;25829;50.228;18.936;2022-11-18T07:37:23;97221.22;;;0.35;73.96
40117;BME280;25829;50.228;18.936;2022-11-18T07:41:05;97207.78;;;0.32;73.61
40117;BME280;25829;50.228;18.936;2022-11-18T07:44:10;97205.63;;;0.12;73.70
40117;BME280;25829;50.228;18.936;2022-11-18T07:47:11;97206.34;;;0.06;74.49
40117;BME280;25829;50.228;18.936;2022-11-18T07:50:12;97213.13;;;0.07;74.49
40117;BME280;25829;50.228;18.936;2022-11-18T07:53:12;97209.09;;;0.05;74.30
40117;BME280;25829;50.228;18.936;2022-11-18T07:56:13;97214.44;;;0.03;74.80
40117;BME280;25829;50.228;18.936;2022-11-18T07:59:29;97213.00;;;0.01;74.68
40117;BME280;25829;50.228;18.936;2022-11-18T08:03:06;97214.59;;;0.02;74.63
40117;BME280;25829;50.228;18.936;2022-11-18T08:06:12;97211.69;;;0.05;74.44
40117;BME280;25829;50.228;18.936;2022-11-18T08:09:14;97216.84;;;0.05;74.23
40117;BME280;25829;50.228;18.936;2022-11-18T08:19:38;97221.19;;;0.12;74.42
40117;BME280;25829;50.228;18.936;2022-11-18T08:37:53;97243.97;;;-0.06;74.93
40117;BME280;25829;50.228;18.936;2022-11-18T08:44:28;97246.31;;;-0.19;74.91
40117;BME280;25829;50.228;18.936;2022-11-18T08:47:38;97245.50;;;-0.20;75.01
40117;BME280;25829;50.228;18.936;2022-11-18T08:50:39;97252.94;;;-0.17;75.06
40117;BME280;25829;50.228;18.936;2022-11-18T08:53:40;97258.97;;;-0.24;74.51
40117;BME280;25829;50.228;18.936;2022-11-18T08:56:47;97254.88;;;-0.19;74.95
40117;BME280;25829;50.228;18.936;2022-11-18T08:59:50;97251.22;;;-0.24;74.83
40117;BME280;25829;50.228;18.936;2022-11-18T09:03:11;97258.47;;;-0.20;75.24
40117;BME280;25829;50.228;18.936;2022-11-18T09:06:18;97266.38;;;-0.13;75.52
40117;BME280;25829;50.228;18.936;2022-11-18T09:09:19;97257.28;;;-0.09;75.33
40117;BME280;25829;50.228;18.936;2022-11-18T09:12:20;97255.97;;;-0.05;74.75
40117;BME280;25829;50.228;18.936;2022-11-18T09:15:21;97261.66;;;-0.09;74.70
40117;BME280;25829;50.228;18.936;2022-11-18T09:18:26;97252.75;;;-0.15;74.86
40117;BME280;25829;50.228;18.936;2022-11-18T09:21:27;97254.88;;;-0.19;75.24
40117;BME280;25829;50.228;18.936;2022-11-18T09:24:28;97261.25;;;-0.21;75.19
40117;BME280;25829;50.228;18.936;2022-11-18T09:27:29;97253.66;;;-0.39;74.79
40117;BME280;25829;50.228;18.936;2022-11-18T09:30:33;97254.13;;;-0.36;75.65
40117;BME280;25829;50.228;18.936;2022-11-18T09:33:40;97255.91;;;-0.28;75.24
40117;BME280;25829;50.228;18.936;2022-11-18T09:36:41;97259.97;;;-0.33;75.31
40117;BME280;25829;50.228;18.936;2022-11-18T09:39:45;97252.53;;;-0.37;75.20
40117;BME280;25829;50.228;18.936;2022-11-18T09:50:48;97263.22;;;-0.31;74.80
40117;BME280;25829;50.228;18.936;2022-11-18T09:53:49;97241.66;;;-0.32;74.13
40117;BME280;25829;50.228;18.936;2022-11-18T09:56:52;97256.25;;;-0.31;74.69
40117;BME280;25829;50.228;18.936;2022-11-18T10:15:49;97290.19;;;-0.81;74.42
40117;BME280;25829;50.228;18.936;2022-11-18T10:43:59;97286.03;;;-0.91;74.32
40117;BME280;25829;50.228;18.936;2022-11-18T10:50:50;97298.81;;;-0.97;73.65
40117;BME280;25829;50.228;18.936;2022-11-18T10:54:12;97297.97;;;-0.98;74.22
40117;BME280;25829;50.228;18.936;2022-11-18T10:57:34;97301.03;;;-0.94;74.37
40117;BME280;25829;50.228;18.936;2022-11-18T11:00:46;97300.25;;;-1.03;73.60
40117;BME280;25829;50.228;18.936;2022-11-18T11:04:10;97293.97;;;-1.25;74.14
40117;BME280;25829;50.228;18.936;2022-11-18T11:07:28;97304.78;;;-1.29;74.58
40117;BME280;25829;50.228;18.936;2022-11-18T11:10:31;97301.53;;;-1.40;74.73
40117;BME280;25829;50.228;18.936;2022-11-18T11:13:42;97297.66;;;-1.44;74.62
40117;BME280;25829;50.228;18.936;2022-11-18T11:20:26;97289.41;;;-1.47;74.82
40117;BME280;25829;50.228;18.936;2022-11-18T11:23:34;97295.09;;;-1.36;74.77
40117;BME280;25829;50.228;18.936;2022-11-18T11:30:25;97297.81;;;-1.45;74.21
40117;BME280;25829;50.228;18.936;2022-11-18T11:51:44;97284.69;;;-1.68;74.59
40117;BME280;25829;50.228;18.936;2022-11-18T12:19:57;97292.00;;;-1.47;73.71
40117;BME280;25829;50.228;18.936;2022-11-18T12:23:38;97289.41;;;-1.39;73.62
40117;BME280;25829;50.228;18.936;2022-11-18T12:26:49;97295.88;;;-1.43;73.19
40117;BME280;25829;50.228;18.936;2022-11-18T12:29:54;97300.72;;;-1.40;73.18
40117;BME280;25829;50.228;18.936;2022-11-18T12:32:55;97303.78;;;-1.37;72.71
40117;BME280;25829;50.228;18.936;2022-11-18T12:36:02;97300.72;;;-1.40;72.17
40117;BME280;25829;50.228;18.936;2022-11-18T12:42:42;97309.28;;;-1.40;72.36
40117;BME280;25829;50.228;18.936;2022-11-18T12:46:02;97310.59;;;-1.52;71.23
40117;BME280;25829;50.228;18.936;2022-11-18T12:55:37;97321.00;;;-1.86;71.48
40117;BME280;25829;50.228;18.936;2022-11-18T12:58:43;97319.41;;;-1.79;71.97
40117;BME280;25829;50.228;18.936;2022-11-18T13:08:34;97326.47;;;-1.89;71.08
40117;BME280;25829;50.228;18.936;2022-11-18T13:11:53;97321.97;;;-1.87;70.83
40117;BME280;25829;50.228;18.936;2022-11-18T13:15:05;97320.16;;;-1.95;70.19
40117;BME280;25829;50.228;18.936;2022-11-18T13:18:55;97326.28;;;-2.04;70.81
40117;BME280;25829;50.228;18.936;2022-11-18T13:22:34;97336.00;;;-1.90;70.55
40117;BME280;25829;50.228;18.936;2022-11-18T13:26:18;97331.94;;;-1.92;70.55
40117;BME280;25829;50.228;18.936;2022-11-18T13:29:48;97332.00;;;-1.84;70.49
40117;BME280;25829;50.228;18.936;2022-11-18T13:32:52;97336.63;;;-1.96;69.21
40117;BME280;25829;50.228;18.936;2022-11-18T13:35:57;97331.38;;;-2.12;68.94
40117;BME280;25829;50.228;18.936;2022-11-18T13:39:03;97348.97;;;-2.16;69.31
40117;BME280;25829;50.228;18.936;2022-11-18T13:42:43;97351.13;;;-2.11;69.06
40117;BME280;25829;50.228;18.936;2022-11-18T13:45:52;97351.63;;;-1.99;69.61
40117;BME280;25829;50.228;18.936;2022-11-18T13:48:57;97354.88;;;-1.97;69.08
40117;BME280;25829;50.228;18.936;2022-11-18T13:56:17;97370.88;;;-1.94;68.94
40117;BME280;25829;50.228;18.936;2022-11-18T14:02:42;97378.34;;;-1.91;69.07
40117;BME280;25829;50.228;18.936;2022-11-18T14:09:26;97373.84;;;-1.81;68.47
40117;BME280;25829;50.228;18.936;2022-11-18T14:12:30;97379.97;;;-1.82;67.99
40117;BME280;25829;50.228;18.936;2022-11-18T14:15:46;97389.47;;;-1.90;67.65
40117;BME280;25829;50.228;18.936;2022-11-18T14:18:50;97392.22;;;-1.92;67.64
40117;BME280;25829;50.228;18.936;2022-11-18T14:21:51;97402.03;;;-1.95;67.08
40117;BME280;25829;50.228;18.936;2022-11-18T14:25:29;97397.34;;;-2.00;67.62
40117;BME280;25829;50.228;18.936;2022-11-18T14:28:33;97395.75;;;-1.93;68.15
40117;BME280;25829;50.228;18.936;2022-11-18T14:31:36;97392.25;;;-1.84;68.11
40117;BME280;25829;50.228;18.936;2022-11-18T14:34:36;97397.28;;;-1.74;67.69
40117;BME280;25829;50.228;18.936;2022-11-18T14:37:59;97390.66;;;-1.76;67.40
40117;BME280;25829;50.228;18.936;2022-11-18T14:44:11;97400.47;;;-1.88;66.69
40117;BME280;25829;50.228;18.936;2022-11-18T14:47:46;97406.41;;;-1.96;66.27
40117;BME280;25829;50.228;18.936;2022-11-18T14:50:47;97409.47;;;-2.00;67.83
40117;BME280;25829;50.228;18.936;2022-11-18T14:53:48;97416.50;;;-2.11;66.62
40117;BME280;25829;50.228;18.936;2022-11-18T14:57:21;97414.91;;;-2.12;67.29
40117;BME280;25829;50.228;18.936;2022-11-18T15:00:22;97414.84;;;-2.20;66.85
40117;BME280;25829;50.228;18.936;2022-11-18T15:03:23;97415.50;;;-2.18;67.00
40117;BME280;25829;50.228;18.936;2022-11-18T15:06:26;97431.66;;;-2.16;66.44
40117;BME280;25829;50.228;18.936;2022-11-18T15:09:36;97436.72;;;-2.06;67.12
40117;BME280;25829;50.228;18.936;2022-11-18T15:12:37;97444.19;;;-1.95;67.39
40117;BME280;25829;50.228;18.936;2022-11-18T15:15:38;97440.38;;;-1.91;67.28
40117;BME280;25829;50.228;18.936;2022-11-18T15:18:39;97442.50;;;-1.86;66.76
40117;BME280;25829;50.228;18.936;2022-11-18T15:21:40;97441.81;;;-1.88;66.26
40117;BME280;25829;50.228;18.936;2022-11-18T15:24:41;97435.66;;;-1.95;65.29
40117;BME280;25829;50.228;18.936;2022-11-18T15:27:42;97435.66;;;-1.95;66.58
40117;BME280;25829;50.228;18.936;2022-11-18T15:30:42;97439.69;;;-1.93;65.72
40117;BME280;25829;50.228;18.936;2022-11-18T15:33:44;97449.53;;;-1.96;64.91
40117;BME280;25829;50.228;18.936;2022-11-18T15:36:45;97438.91;;;-1.93;65.79
40117;BME280;25829;50.228;18.936;2022-11-18T15:39:46;97450.53;;;-1.89;65.77
40117;BME280;25829;50.228;18.936;2022-11-18T15:42:49;97448.72;;;-1.97;64.55
40117;BME280;25829;50.228;18.936;2022-11-18T15:45:58;97446.31;;;-2.24;63.87
40117;BME280;25829;50.228;18.936;2022-11-18T15:48:59;97465.66;;;-2.29;64.93
40117;BME280;25829;50.228;18.936;2022-11-18T15:52:00;97482.25;;;-2.31;64.59
40117;BME280;25829;50.228;18.936;2022-11-18T15:55:07;97470.31;;;-2.32;65.00
40117;BME280;25829;50.228;18.936;2022-11-18T15:58:08;97462.34;;;-2.39;64.29
40117;BME280;25829;50.228;18.936;2022-11-18T16:01:21;97471.63;;;-2.28;64.92
40117;BME280;25829;50.228;18.936;2022-11-18T16:08:51;97468.19;;;-2.11;65.41
40117;BME280;25829;50.228;18.936;2022-11-18T16:15:43;97468.53;;;-2.06;63.35
40117;BME280;25829;50.228;18.936;2022-11-18T16:18:47;97469.00;;;-2.10;64.14
40117;BME280;25829;50.228;18.936;2022-11-18T16:22:01;97479.50;;;-2.12;63.73
40117;BME280;25829;50.228;18.936;2022-11-18T16:25:02;97487.59;;;-2.07;63.72
40117;BME280;25829;50.228;18.936;2022-11-18T16:31:05;97493.88;;;-2.09;63.97
40117;BME280;25829;50.228;18.936;2022-11-18T16:34:27;97492.94;;;-2.08;63.80
40117;BME280;25829;50.228;18.936;2022-11-18T16:37:35;97492.31;;;-2.02;63.69
40117;BME280;25829;50.228;18.936;2022-11-18T16:40:42;97499.44;;;-1.96;64.28
40117;BME280;25829;50.228;18.936;2022-11-18T16:51:56;97526.56;;;-2.00;62.05
40117;BME280;25829;50.228;18.936;2022-11-18T16:55:03;97525.59;;;-1.99;63.00
40117;BME280;25829;50.228;18.936;2022-11-18T16:58:04;97530.00;;;-1.91;63.40
40117;BME280;25829;50.228;18.936;2022-11-18T17:01:09;97530.97;;;-1.92;62.01
40117;BME280;25829;50.228;18.936;2022-11-18T17:04:10;97528.38;;;-1.92;62.51
40117;BME280;25829;50.228;18.936;2022-11-18T17:07:17;97523.78;;;-2.07;62.80
40117;BME280;25829;50.228;18.936;2022-11-18T17:10:21;97539.13;;;-2.05;63.00
40117;BME280;25829;50.228;18.936;2022-11-18T17:13:22;97541.88;;;-2.07;63.28
40117;BME280;25829;50.228;18.936;2022-11-18T17:16:24;97546.09;;;-2.23;63.25
40117;BME280;25829;50.228;18.936;2022-11-18T17:19:28;97544.75;;;-2.28;63.39
40117;BME280;25829;50.228;18.936;2022-11-18T17:22:29;97535.41;;;-2.29;63.43
40117;BME280;25829;50.228;18.936;2022-11-18T17:25:33;97543.44;;;-2.32;63.49
40117;BME280;25829;50.228;18.936;2022-11-18T17:28:36;97546.03;;;-2.32;63.74
40117;BME280;25829;50.228;18.936;2022-11-18T17:31:38;97553.84;;;-2.23;63.97
40117;BME280;25829;50.228;18.936;2022-11-18T17:34:39;97550.38;;;-2.14;64.24
40117;BME280;25829;50.228;18.936;2022-11-18T17:37:42;97555.38;;;-2.13;63.85
40117;BME280;25829;50.228;18.936;2022-11-18T17:40:52;97553.75;;;-2.14;63.85
40117;BME280;25829;50.228;18.936;2022-11-18T17:43:57;97561.34;;;-2.12;63.88
40117;BME280;25829;50.228;18.936;2022-11-18T17:46:58;97563.59;;;-2.17;64.15
40117;BME280;25829;50.228;18.936;2022-11-18T17:50:05;97560.31;;;-2.19;63.61
40117;BME280;25829;50.228;18.936;2022-11-18T17:53:05;97577.09;;;-2.23;64.13
40117;BME280;25829;50.228;18.936;2022-11-18T17:56:06;97573.09;;;-2.18;64.85
40117;BME280;25829;50.228;18.936;2022-11-18T17:59:07;97576.13;;;-2.22;64.04
40117;BME280;25829;50.228;18.936;2022-11-18T18:02:26;97573.63;;;-2.32;64.40
40117;BME280;25829;50.228;18.936;2022-11-18T18:05:28;97560.78;;;-2.42;64.40
40117;BME280;25829;50.228;18.936;2022-11-18T18:08:29;97570.09;;;-2.49;64.55
40117;BME280;25829;50.228;18.936;2022-11-18T18:11:29;97572.56;;;-2.57;64.63
40117;BME280;25829;50.228;18.936;2022-11-18T18:14:30;97575.59;;;-2.62;64.77
40117;BME280;25829;50.228;18.936;2022-11-18T18:17:31;97581.84;;;-2.64;65.37
40117;BME280;25829;50.228;18.936;2022-11-18T18:20:33;97567.28;;;-2.56;65.24
40117;BME280;25829;50.228;18.936;2022-11-18T18:23:35;97569.28;;;-2.49;65.33
40117;BME280;25829;50.228;18.936;2022-11-18T18:26:42;97581.16;;;-2.39;64.92
40117;BME280;25829;50.228;18.936;2022-11-18T18:29:42;97587.19;;;-2.48;64.49
40117;BME280;25829;50.228;18.936;2022-11-18T18:37:06;97591.16;;;-2.54;64.63
40117;BME280;25829;50.228;18.936;2022-11-18T18:44:07;97599.94;;;-2.64;65.09
40117;BME280;25829;50.228;18.936;2022-11-18T18:47:08;97602.66;;;-2.66;64.90
40117;BME280;25829;50.228;18.936;2022-11-18T18:50:09;97606.56;;;-2.62;65.42
40117;BME280;25829;50.228;18.936;2022-11-18T18:53:12;97602.22;;;-2.61;64.21
40117;BME280;25829;50.228;18.936;2022-11-18T18:56:13;97603.88;;;-2.60;64.48
40117;BME280;25829;50.228;18.936;2022-11-18T18:59:16;97613.75;;;-2.56;64.31
40117;BME280;25829;50.228;18.936;2022-11-18T19:02:20;97619.28;;;-2.51;64.25
40117;BME280;25829;50.228;18.936;2022-11-18T19:05:21;97612.50;;;-2.79;62.67
40117;BME280;25829;50.228;18.936;2022-11-18T19:08:21;97618.34;;;-2.77;63.97
40117;BME280;25829;50.228;18.936;2022-11-18T19:11:22;97626.03;;;-2.67;64.11
40117;BME280;25829;50.228;18.936;2022-11-18T19:14:41;97620.75;;;-2.66;63.42
40117;BME280;25829;50.228;18.936;2022-11-18T19:17:42;97617.41;;;-2.76;63.41
40117;BME280;25829;50.228;18.936;2022-11-18T19:20:43;97614.66;;;-2.75;63.57
40117;BME280;25829;50.228;18.936;2022-11-18T19:23:44;97624.16;;;-2.75;62.66
40117;BME280;25829;50.228;18.936;2022-11-18T19:26:44;97622.91;;;-2.71;63.14
40117;BME280;25829;50.228;18.936;2022-11-18T19:29:45;97619.41;;;-2.70;62.15
40117;BME280;25829;50.228;18.936;2022-11-18T19:32:46;97629.06;;;-2.72;61.52
40117;BME280;25829;50.228;18.936;2022-11-18T19:35:47;97635.84;;;-2.71;62.44
40117;BME280;25829;50.228;18.936;2022-11-18T19:38:48;97628.41;;;-2.74;62.16
40117;BME280;25829;50.228;18.936;2022-11-18T19:41:49;97635.47;;;-2.76;62.58
40117;BME280;25829;50.228;18.936;2022-11-18T19:44:56;97634.91;;;-2.70;62.45
40117;BME280;25829;50.228;18.936;2022-11-18T19:48:00;97638.66;;;-2.64;62.64
40117;BME280;25829;50.228;18.936;2022-11-18T19:51:10;97634.41;;;-2.56;62.76
40117;BME280;25829;50.228;18.936;2022-11-18T19:54:11;97630.78;;;-2.63;62.45
40117;BME280;25829;50.228;18.936;2022-11-18T19:57:12;97636.03;;;-2.55;63.20
40117;BME280;25829;50.228;18.936;2022-11-18T20:00:25;97641.88;;;-2.53;62.11
40117;BME280;25829;50.228;18.936;2022-11-18T20:07:40;97644.41;;;-2.70;63.12
40117;BME280;25829;50.228;18.936;2022-11-18T20:18:25;97653.38;;;-2.75;62.03
40117;BME280;25829;50.228;18.936;2022-11-18T20:21:58;97666.81;;;-2.71;61.54
40117;BME280;25829;50.228;18.936;2022-11-18T20:25:14;97668.88;;;-2.75;62.09
40117;BME280;25829;50.228;18.936;2022-11-18T20:28:24;97676.09;;;-2.78;62.16
40117;BME280;25829;50.228;18.936;2022-11-18T20:34:51;97681.47;;;-2.62;61.59